sensor_id;sensor_type;location;lat;lon;timestamp;pressure;altitude;pressure_sealevel;temperature;humidity
35848;BME280;22332;51.954;20.118;2023-05-29T00:02:59;100498.80;;;9.10;55.94
35848;BME280;22332;51.954;20.118;2023-05-29T00:06:06;100491.12;;;9.07;55.97
35848;BME280;22332;51.954;20.118;2023-05-29T00:09:11;100488.07;;;9.01;56.11
35848;BME280;22332;51.954;20.118;2023-05-29T00:12:17;100490.72;;;8.95;56.09
35848;BME280;22332;51.954;20.118;2023-05-29T00:15:22;100490.60;;;8.93;56.18
35848;BME280;22332;51.954;20.118;2023-05-29T00:18:28;100493.33;;;8.90;56.25
35848;BME280;22332;51.954;20.118;2023-05-29T00:21:34;100493.90;;;8.88;56.41
35848;BME280;22332;51.954;20.118;2023-05-29T00:24:39;100486.48;;;8.81;56.40
35848;BME280;22332;51.954;20.118;2023-05-29T00:27:45;100487.12;;;8.76;56.51
35848;BME280;22332;51.954;20.118;2023-05-29T00:30:50;100486.98;;;8.71;56.49
35848;BME280;22332;51.954;20.118;2023-05-29T00:33:56;100491.52;;;8.68;56.50
35848;BME280;22332;51.954;20.118;2023-05-29T00:37:02;100489.36;;;8.64;56.55
35848;BME280;22332;51.954;20.118;2023-05-29T00:40:09;100488.23;;;8.61;56.57
35848;BME280;22332;51.954;20.118;2023-05-29T00:43:15;100490.34;;;8.57;56.87
35848;BME280;22332;51.954;20.118;2023-05-29T00:46:21;100487.02;;;8.55;56.78
35848;BME280;22332;51.954;20.118;2023-05-29T00:49:27;100482.85;;;8.50;56.90
35848;BME280;22332;51.954;20.118;2023-05-29T00:52:33;100486.92;;;8.43;57.11
35848;BME280;22332;51.954;20.118;2023-05-29T00:55:39;100490.11;;;8.41;56.97
35848;BME280;22332;51.954;20.118;2023-05-29T00:58:45;100488.85;;;8.39;57.14
35848;BME280;22332;51.954;20.118;2023-05-29T01:01:51;100489.30;;;8.32;57.16
35848;BME280;22332;51.954;20.118;2023-05-29T01:04:57;100482.67;;;8.27;57.17
35848;BME280;22332;51.954;20.118;2023-05-29T01:08:03;100482.75;;;8.26;57.45
35848;BME280;22332;51.954;20.118;2023-05-29T01:11:21;100481.14;;;8.28;57.40
35848;BME280;22332;51.954;20.118;2023-05-29T01:14:40;100479.23;;;8.23;57.37
35848;BME280;22332;51.954;20.118;2023-05-29T01:21:26;100481.11;;;8.18;57.44
35848;BME280;22332;51.954;20.118;2023-05-29T01:24:42;100483.27;;;8.16;57.62
35848;BME280;22332;51.954;20.118;2023-05-29T01:27:51;100483.42;;;8.12;57.67
35848;BME280;22332;51.954;20.118;2023-05-29T01:31:01;100482.44;;;8.05;57.75
35848;BME280;22332;51.954;20.118;2023-05-29T01:34:08;100479.90;;;7.97;57.79
35848;BME280;22332;51.954;20.118;2023-05-29T01:37:14;100476.70;;;7.93;57.69
35848;BME280;22332;51.954;20.118;2023-05-29T01:40:19;100476.77;;;7.90;57.75
35848;BME280;22332;51.954;20.118;2023-05-29T01:43:25;100474.80;;;7.84;57.85
35848;BME280;22332;51.954;20.118;2023-05-29T01:46:31;100476.43;;;7.79;57.92
35848;BME280;22332;51.954;20.118;2023-05-29T01:49:37;100477.34;;;7.79;57.92
35848;BME280;22332;51.954;20.118;2023-05-29T01:52:46;100475.66;;;7.78;58.04
35848;BME280;22332;51.954;20.118;2023-05-29T01:55:52;100472.91;;;7.75;58.06
35848;BME280;22332;51.954;20.118;2023-05-29T01:58:58;100470.77;;;7.67;58.09
35848;BME280;22332;51.954;20.118;2023-05-29T02:02:08;100468.77;;;7.63;58.25
35848;BME280;22332;51.954;20.118;2023-05-29T02:05:14;100469.05;;;7.62;58.18
35848;BME280;22332;51.954;20.118;2023-05-29T02:08:21;100470.17;;;7.59;58.29
35848;BME280;22332;51.954;20.118;2023-05-29T02:11:27;100465.06;;;7.59;58.58
35848;BME280;22332;51.954;20.118;2023-05-29T02:14:32;100458.77;;;7.58;58.55
35848;BME280;22332;51.954;20.118;2023-05-29T02:17:38;100460.48;;;7.56;58.50
35848;BME280;22332;51.954;20.118;2023-05-29T02:20:45;100458.84;;;7.57;58.41
35848;BME280;22332;51.954;20.118;2023-05-29T02:23:58;100457.44;;;7.53;58.45
35848;BME280;22332;51.954;20.118;2023-05-29T02:27:04;100457.64;;;7.50;58.67
35848;BME280;22332;51.954;20.118;2023-05-29T02:30:11;100458.45;;;7.51;58.84
35848;BME280;22332;51.954;20.118;2023-05-29T02:33:16;100453.27;;;7.49;58.44
35848;BME280;22332;51.954;20.118;2023-05-29T02:36:22;100453.06;;;7.43;58.95
35848;BME280;22332;51.954;20.118;2023-05-29T02:39:28;100452.69;;;7.41;58.80
35848;BME280;22332;51.954;20.118;2023-05-29T02:42:34;100453.55;;;7.44;58.97
35848;BME280;22332;51.954;20.118;2023-05-29T02:45:42;100452.55;;;7.45;59.09
35848;BME280;22332;51.954;20.118;2023-05-29T02:48:47;100453.54;;;7.48;58.85
35848;BME280;22332;51.954;20.118;2023-05-29T02:51:53;100450.33;;;7.48;58.93
35848;BME280;22332;51.954;20.118;2023-05-29T02:55:01;100450.89;;;7.46;59.07
35848;BME280;22332;51.954;20.118;2023-05-29T02:58:09;100451.44;;;7.48;59.16
35848;BME280;22332;51.954;20.118;2023-05-29T03:01:15;100448.96;;;7.52;59.04
35848;BME280;22332;51.954;20.118;2023-05-29T03:04:21;100448.05;;;7.57;59.18
35848;BME280;22332;51.954;20.118;2023-05-29T03:07:27;100447.48;;;7.59;59.38
35848;BME280;22332;51.954;20.118;2023-05-29T03:10:34;100447.19;;;7.62;59.33
35848;BME280;22332;51.954;20.118;2023-05-29T03:13:39;100444.77;;;7.66;59.10
35848;BME280;22332;51.954;20.118;2023-05-29T03:16:46;100445.11;;;7.73;59.18
35848;BME280;22332;51.954;20.118;2023-05-29T03:19:52;100447.79;;;7.81;59.14
35848;BME280;22332;51.954;20.118;2023-05-29T03:22:58;100453.79;;;7.94;59.32
35848;BME280;22332;51.954;20.118;2023-05-29T03:26:05;100452.46;;;8.07;59.53
35848;BME280;22332;51.954;20.118;2023-05-29T03:29:11;100456.51;;;8.26;59.58
35848;BME280;22332;51.954;20.118;2023-05-29T03:32:17;100464.23;;;8.50;59.60
35848;BME280;22332;51.954;20.118;2023-05-29T03:35:22;100467.90;;;8.75;59.54
35848;BME280;22332;51.954;20.118;2023-05-29T03:38:28;100466.27;;;8.95;59.29
35848;BME280;22332;51.954;20.118;2023-05-29T03:41:35;100471.29;;;9.16;59.38
35848;BME280;22332;51.954;20.118;2023-05-29T03:44:41;100475.75;;;9.39;59.58
35848;BME280;22332;51.954;20.118;2023-05-29T03:47:47;100472.80;;;9.64;59.25
35848;BME280;22332;51.954;20.118;2023-05-29T03:50:53;100471.71;;;9.83;59.41
35848;BME280;22332;51.954;20.118;2023-05-29T03:54:03;100471.58;;;10.04;59.28
35848;BME280;22332;51.954;20.118;2023-05-29T03:57:10;100470.17;;;10.28;59.70
35848;BME280;22332;51.954;20.118;2023-05-29T04:00:16;100469.29;;;10.51;59.43
35848;BME280;22332;51.954;20.118;2023-05-29T04:03:24;100472.97;;;10.77;59.55
35848;BME280;22332;51.954;20.118;2023-05-29T04:06:30;100474.53;;;11.07;59.60
35848;BME280;22332;51.954;20.118;2023-05-29T04:09:36;100468.59;;;11.33;59.87
35848;BME280;22332;51.954;20.118;2023-05-29T04:12:41;100470.91;;;11.60;59.44
35848;BME280;22332;51.954;20.118;2023-05-29T04:15:47;100470.80;;;11.84;59.48
35848;BME280;22332;51.954;20.118;2023-05-29T04:18:55;100471.84;;;12.14;59.80
35848;BME280;22332;51.954;20.118;2023-05-29T04:22:02;100471.45;;;12.45;59.53
35848;BME280;22332;51.954;20.118;2023-05-29T04:25:09;100467.41;;;12.77;59.51
35848;BME280;22332;51.954;20.118;2023-05-29T04:28:15;100473.00;;;13.09;59.33
35848;BME280;22332;51.954;20.118;2023-05-29T04:31:21;100476.88;;;13.34;59.37
35848;BME280;22332;51.954;20.118;2023-05-29T04:34:30;100473.86;;;13.64;59.28
35848;BME280;22332;51.954;20.118;2023-05-29T04:37:36;100470.19;;;13.93;59.20
35848;BME280;22332;51.954;20.118;2023-05-29T04:40:43;100472.36;;;14.17;59.03
35848;BME280;22332;51.954;20.118;2023-05-29T04:43:50;100469.01;;;14.39;59.41
35848;BME280;22332;51.954;20.118;2023-05-29T04:46:57;100468.16;;;14.59;58.76
35848;BME280;22332;51.954;20.118;2023-05-29T04:50:02;100469.55;;;14.80;59.09
35848;BME280;22332;51.954;20.118;2023-05-29T04:53:08;100469.19;;;14.99;59.07
35848;BME280;22332;51.954;20.118;2023-05-29T04:56:15;100467.20;;;15.16;59.25
35848;BME280;22332;51.954;20.118;2023-05-29T04:59:21;100464.11;;;15.29;58.67
35848;BME280;22332;51.954;20.118;2023-05-29T05:02:26;100461.45;;;15.30;58.35
35848;BME280;22332;51.954;20.118;2023-05-29T05:05:32;100463.51;;;15.36;58.59
35848;BME280;22332;51.954;20.118;2023-05-29T05:08:38;100463.31;;;15.48;58.70
35848;BME280;22332;51.954;20.118;2023-05-29T05:11:44;100460.37;;;15.69;58.83
35848;BME280;22332;51.954;20.118;2023-05-29T05:14:50;100463.00;;;15.92;58.83
35848;BME280;22332;51.954;20.118;2023-05-29T05:17:56;100460.89;;;16.14;58.78
35848;BME280;22332;51.954;20.118;2023-05-29T05:21:02;100460.51;;;16.34;58.97
35848;BME280;22332;51.954;20.118;2023-05-29T05:24:08;100462.06;;;16.51;58.73
35848;BME280;22332;51.954;20.118;2023-05-29T05:27:16;100458.33;;;16.67;58.60
35848;BME280;22332;51.954;20.118;2023-05-29T05:30:22;100455.73;;;16.80;58.65
35848;BME280;22332;51.954;20.118;2023-05-29T05:33:28;100454.40;;;16.96;58.14
35848;BME280;22332;51.954;20.118;2023-05-29T05:36:33;100454.16;;;17.11;57.72
35848;BME280;22332;51.954;20.118;2023-05-29T05:39:45;100463.14;;;17.27;57.62
35848;BME280;22332;51.954;20.118;2023-05-29T05:42:50;100466.86;;;17.37;57.40
35848;BME280;22332;51.954;20.118;2023-05-29T05:46:01;100462.83;;;17.48;57.45
35848;BME280;22332;51.954;20.118;2023-05-29T05:49:07;100464.80;;;17.61;57.25
35848;BME280;22332;51.954;20.118;2023-05-29T05:52:13;100463.30;;;17.66;56.85
35848;BME280;22332;51.954;20.118;2023-05-29T05:55:19;100464.79;;;17.58;56.65
35848;BME280;22332;51.954;20.118;2023-05-29T05:58:26;100464.23;;;17.56;56.26
35848;BME280;22332;51.954;20.118;2023-05-29T06:01:32;100468.09;;;17.56;56.60
35848;BME280;22332;51.954;20.118;2023-05-29T06:04:37;100471.40;;;17.64;56.38
35848;BME280;22332;51.954;20.118;2023-05-29T06:07:43;100464.34;;;17.75;56.42
35848;BME280;22332;51.954;20.118;2023-05-29T06:10:48;100470.23;;;17.84;55.84
35848;BME280;22332;51.954;20.118;2023-05-29T06:13:54;100472.22;;;17.85;55.57
35848;BME280;22332;51.954;20.118;2023-05-29T06:17:03;100465.62;;;17.80;55.74
35848;BME280;22332;51.954;20.118;2023-05-29T06:20:10;100467.98;;;17.83;55.92
35848;BME280;22332;51.954;20.118;2023-05-29T06:23:17;100469.80;;;17.84;55.69
35848;BME280;22332;51.954;20.118;2023-05-29T06:26:24;100471.04;;;17.81;55.53
35848;BME280;22332;51.954;20.118;2023-05-29T06:29:32;100470.14;;;17.77;54.31
35848;BME280;22332;51.954;20.118;2023-05-29T06:32:37;100469.14;;;17.71;55.11
35848;BME280;22332;51.954;20.118;2023-05-29T06:35:45;100469.50;;;17.72;54.67
35848;BME280;22332;51.954;20.118;2023-05-29T06:38:51;100470.40;;;17.71;54.86
35848;BME280;22332;51.954;20.118;2023-05-29T06:41:56;100471.64;;;17.73;53.84
35848;BME280;22332;51.954;20.118;2023-05-29T06:45:02;100475.74;;;17.73;54.34
35848;BME280;22332;51.954;20.118;2023-05-29T06:48:08;100474.22;;;17.79;54.73
35848;BME280;22332;51.954;20.118;2023-05-29T06:51:17;100472.43;;;17.83;54.02
35848;BME280;22332;51.954;20.118;2023-05-29T06:54:43;100469.92;;;17.88;53.22
35848;BME280;22332;51.954;20.118;2023-05-29T06:57:52;100467.05;;;17.93;52.83
35848;BME280;22332;51.954;20.118;2023-05-29T07:00:58;100465.17;;;18.02;51.51
35848;BME280;22332;51.954;20.118;2023-05-29T07:04:08;100470.87;;;18.04;48.71
35848;BME280;22332;51.954;20.118;2023-05-29T07:07:15;100473.55;;;18.06;49.37
35848;BME280;22332;51.954;20.118;2023-05-29T07:10:20;100476.54;;;18.12;47.56
35848;BME280;22332;51.954;20.118;2023-05-29T07:13:26;100479.70;;;18.18;49.35
35848;BME280;22332;51.954;20.118;2023-05-29T07:16:33;100480.21;;;18.28;47.73
35848;BME280;22332;51.954;20.118;2023-05-29T07:19:42;100482.38;;;18.35;48.13
35848;BME280;22332;51.954;20.118;2023-05-29T07:22:48;100486.80;;;18.37;47.43
35848;BME280;22332;51.954;20.118;2023-05-29T07:25:54;100489.57;;;18.43;48.31
35848;BME280;22332;51.954;20.118;2023-05-29T07:29:03;100489.87;;;18.51;48.37
35848;BME280;22332;51.954;20.118;2023-05-29T07:32:10;100490.16;;;18.60;47.87
35848;BME280;22332;51.954;20.118;2023-05-29T07:35:19;100488.98;;;18.64;46.62
35848;BME280;22332;51.954;20.118;2023-05-29T07:38:26;100486.36;;;18.64;46.75
35848;BME280;22332;51.954;20.118;2023-05-29T07:41:31;100487.95;;;18.73;47.01
35848;BME280;22332;51.954;20.118;2023-05-29T07:44:38;100490.29;;;18.83;47.00
35848;BME280;22332;51.954;20.118;2023-05-29T07:47:46;100489.11;;;18.90;47.10
35848;BME280;22332;51.954;20.118;2023-05-29T07:50:52;100493.96;;;18.96;45.33
35848;BME280;22332;51.954;20.118;2023-05-29T07:53:58;100486.38;;;19.00;44.98
35848;BME280;22332;51.954;20.118;2023-05-29T07:57:04;100489.52;;;19.04;44.23
35848;BME280;22332;51.954;20.118;2023-05-29T08:00:15;100488.90;;;19.10;44.29
35848;BME280;22332;51.954;20.118;2023-05-29T08:03:24;100487.84;;;19.14;44.79
35848;BME280;22332;51.954;20.118;2023-05-29T08:06:48;100492.77;;;19.23;45.55
35848;BME280;22332;51.954;20.118;2023-05-29T08:09:55;100488.41;;;19.33;45.49
35848;BME280;22332;51.954;20.118;2023-05-29T08:13:01;100487.48;;;19.42;45.56
35848;BME280;22332;51.954;20.118;2023-05-29T08:16:08;100489.30;;;19.53;45.71
35848;BME280;22332;51.954;20.118;2023-05-29T08:19:14;100488.00;;;19.61;44.63
35848;BME280;22332;51.954;20.118;2023-05-29T08:22:19;100492.83;;;19.61;43.86
35848;BME280;22332;51.954;20.118;2023-05-29T08:25:26;100491.17;;;19.58;43.36
35848;BME280;22332;51.954;20.118;2023-05-29T08:28:32;100487.54;;;19.58;43.91
35848;BME280;22332;51.954;20.118;2023-05-29T08:31:37;100490.17;;;19.65;44.58
35848;BME280;22332;51.954;20.118;2023-05-29T08:34:43;100491.58;;;19.71;43.13
35848;BME280;22332;51.954;20.118;2023-05-29T08:37:49;100496.78;;;19.71;42.62
35848;BME280;22332;51.954;20.118;2023-05-29T08:40:55;100493.51;;;19.76;43.67
35848;BME280;22332;51.954;20.118;2023-05-29T08:44:04;100492.84;;;19.82;42.28
35848;BME280;22332;51.954;20.118;2023-05-29T08:47:13;100492.34;;;19.84;43.24
35848;BME280;22332;51.954;20.118;2023-05-29T08:50:23;100491.38;;;19.89;40.98
35848;BME280;22332;51.954;20.118;2023-05-29T08:53:28;100490.30;;;19.87;42.63
35848;BME280;22332;51.954;20.118;2023-05-29T08:56:36;100486.46;;;19.97;43.15
35848;BME280;22332;51.954;20.118;2023-05-29T08:59:44;100483.45;;;20.09;43.28
35848;BME280;22332;51.954;20.118;2023-05-29T09:02:50;100485.31;;;20.18;42.51
35848;BME280;22332;51.954;20.118;2023-05-29T09:06:01;100484.23;;;20.23;42.23
35848;BME280;22332;51.954;20.118;2023-05-29T09:09:07;100483.79;;;20.28;41.43
35848;BME280;22332;51.954;20.118;2023-05-29T09:12:14;100485.34;;;20.26;40.68
35848;BME280;22332;51.954;20.118;2023-05-29T09:15:21;100482.13;;;20.27;41.61
35848;BME280;22332;51.954;20.118;2023-05-29T09:18:31;100478.31;;;20.32;41.74
35848;BME280;22332;51.954;20.118;2023-05-29T09:21:37;100477.72;;;20.41;41.99
35848;BME280;22332;51.954;20.118;2023-05-29T09:24:45;100474.46;;;20.43;40.66
35848;BME280;22332;51.954;20.118;2023-05-29T09:27:53;100478.88;;;20.30;38.24
35848;BME280;22332;51.954;20.118;2023-05-29T09:31:00;100473.27;;;20.15;38.60
35848;BME280;22332;51.954;20.118;2023-05-29T09:34:05;100470.27;;;20.16;40.79
35848;BME280;22332;51.954;20.118;2023-05-29T09:37:11;100469.54;;;20.31;41.32
35848;BME280;22332;51.954;20.118;2023-05-29T09:40:20;100470.13;;;20.45;41.35
35848;BME280;22332;51.954;20.118;2023-05-29T09:43:25;100470.41;;;20.57;40.37
35848;BME280;22332;51.954;20.118;2023-05-29T09:46:35;100467.75;;;20.57;40.27
35848;BME280;22332;51.954;20.118;2023-05-29T09:49:43;100477.52;;;20.58;39.83
35848;BME280;22332;51.954;20.118;2023-05-29T09:52:49;100471.02;;;20.59;40.18
35848;BME280;22332;51.954;20.118;2023-05-29T09:55:57;100474.40;;;20.62;39.54
35848;BME280;22332;51.954;20.118;2023-05-29T09:59:03;100471.63;;;20.65;40.26
35848;BME280;22332;51.954;20.118;2023-05-29T10:02:11;100469.81;;;20.72;40.24
35848;BME280;22332;51.954;20.118;2023-05-29T10:05:18;100471.13;;;20.78;39.38
35848;BME280;22332;51.954;20.118;2023-05-29T10:08:27;100466.39;;;20.84;40.26
35848;BME280;22332;51.954;20.118;2023-05-29T10:11:36;100467.55;;;20.93;39.99
35848;BME280;22332;51.954;20.118;2023-05-29T10:14:44;100465.48;;;20.96;39.84
35848;BME280;22332;51.954;20.118;2023-05-29T10:17:56;100464.05;;;21.02;39.50
35848;BME280;22332;51.954;20.118;2023-05-29T10:21:03;100460.50;;;21.01;38.22
35848;BME280;22332;51.954;20.118;2023-05-29T10:24:10;100456.51;;;20.97;38.92
35848;BME280;22332;51.954;20.118;2023-05-29T10:27:16;100459.28;;;20.94;37.66
35848;BME280;22332;51.954;20.118;2023-05-29T10:30:32;100452.70;;;20.99;39.18
35848;BME280;22332;51.954;20.118;2023-05-29T10:33:56;100455.50;;;21.07;38.46
35848;BME280;22332;51.954;20.118;2023-05-29T10:37:09;100450.95;;;21.06;38.89
35848;BME280;22332;51.954;20.118;2023-05-29T10:40:26;100447.13;;;21.11;37.51
35848;BME280;22332;51.954;20.118;2023-05-29T10:43:35;100442.49;;;21.12;37.65
35848;BME280;22332;51.954;20.118;2023-05-29T10:47:03;100442.67;;;21.10;37.05
35848;BME280;22332;51.954;20.118;2023-05-29T10:50:10;100445.08;;;21.09;36.99
35848;BME280;22332;51.954;20.118;2023-05-29T10:53:18;100442.36;;;21.12;37.72
35848;BME280;22332;51.954;20.118;2023-05-29T10:56:30;100441.24;;;21.24;38.13
35848;BME280;22332;51.954;20.118;2023-05-29T10:59:38;100438.68;;;21.33;38.00
35848;BME280;22332;51.954;20.118;2023-05-29T11:02:43;100437.52;;;21.38;37.04
35848;BME280;22332;51.954;20.118;2023-05-29T11:05:58;100436.06;;;21.41;36.61
35848;BME280;22332;51.954;20.118;2023-05-29T11:09:05;100435.73;;;21.51;36.79
35848;BME280;22332;51.954;20.118;2023-05-29T11:12:16;100437.78;;;21.51;35.18
35848;BME280;22332;51.954;20.118;2023-05-29T11:15:29;100432.55;;;21.46;35.68
35848;BME280;22332;51.954;20.118;2023-05-29T11:18:41;100429.33;;;21.52;36.37
35848;BME280;22332;51.954;20.118;2023-05-29T11:22:03;100424.80;;;21.62;36.91
35848;BME280;22332;51.954;20.118;2023-05-29T11:25:14;100422.15;;;21.74;36.78
35848;BME280;22332;51.954;20.118;2023-05-29T11:28:20;100420.68;;;21.83;36.57
35848;BME280;22332;51.954;20.118;2023-05-29T11:31:28;100421.21;;;21.87;35.71
35848;BME280;22332;51.954;20.118;2023-05-29T11:34:35;100424.09;;;21.93;35.47
35848;BME280;22332;51.954;20.118;2023-05-29T11:37:44;100420.70;;;22.02;36.50
35848;BME280;22332;51.954;20.118;2023-05-29T11:40:51;100418.57;;;22.14;35.62
35848;BME280;22332;51.954;20.118;2023-05-29T11:44:02;100416.05;;;22.23;36.55
35848;BME280;22332;51.954;20.118;2023-05-29T11:47:09;100422.36;;;22.11;35.67
35848;BME280;22332;51.954;20.118;2023-05-29T11:50:21;100416.63;;;22.03;35.99
35848;BME280;22332;51.954;20.118;2023-05-29T11:53:28;100411.13;;;22.13;36.45
35848;BME280;22332;51.954;20.118;2023-05-29T11:56:34;100413.52;;;22.09;35.34
35848;BME280;22332;51.954;20.118;2023-05-29T11:59:40;100415.41;;;22.16;35.57
35848;BME280;22332;51.954;20.118;2023-05-29T12:02:48;100411.14;;;22.27;34.89
35848;BME280;22332;51.954;20.118;2023-05-29T12:05:54;100410.42;;;22.32;34.50
35848;BME280;22332;51.954;20.118;2023-05-29T12:08:59;100405.69;;;22.40;34.82
35848;BME280;22332;51.954;20.118;2023-05-29T12:12:07;100404.50;;;22.41;34.59
35848;BME280;22332;51.954;20.118;2023-05-29T12:15:13;100404.48;;;22.46;34.35
35848;BME280;22332;51.954;20.118;2023-05-29T12:18:20;100400.59;;;22.49;34.69
35848;BME280;22332;51.954;20.118;2023-05-29T12:21:26;100399.73;;;22.54;34.29
35848;BME280;22332;51.954;20.118;2023-05-29T12:24:32;100394.75;;;22.64;35.04
35848;BME280;22332;51.954;20.118;2023-05-29T12:27:41;100395.95;;;22.66;34.91
35848;BME280;22332;51.954;20.118;2023-05-29T12:30:47;100393.57;;;22.53;34.74
35848;BME280;22332;51.954;20.118;2023-05-29T12:33:56;100393.98;;;22.50;34.79
35848;BME280;22332;51.954;20.118;2023-05-29T12:37:07;100391.20;;;22.54;35.00
35848;BME280;22332;51.954;20.118;2023-05-29T12:40:20;100382.82;;;22.74;35.12
35848;BME280;22332;51.954;20.118;2023-05-29T12:43:26;100377.04;;;22.89;33.81
35848;BME280;22332;51.954;20.118;2023-05-29T12:46:38;100370.94;;;23.01;34.92
35848;BME280;22332;51.954;20.118;2023-05-29T12:49:43;100370.48;;;23.12;33.87
35848;BME280;22332;51.954;20.118;2023-05-29T12:52:56;100368.73;;;23.12;34.63
35848;BME280;22332;51.954;20.118;2023-05-29T12:56:02;100372.55;;;23.06;33.73
35848;BME280;22332;51.954;20.118;2023-05-29T12:59:07;100370.60;;;22.80;34.34
35848;BME280;22332;51.954;20.118;2023-05-29T13:02:13;100368.24;;;22.71;34.87
35848;BME280;22332;51.954;20.118;2023-05-29T13:05:20;100364.27;;;22.74;34.73
35848;BME280;22332;51.954;20.118;2023-05-29T13:08:27;100364.61;;;22.74;33.88
35848;BME280;22332;51.954;20.118;2023-05-29T13:11:33;100357.52;;;22.76;34.42
35848;BME280;22332;51.954;20.118;2023-05-29T13:14:38;100355.83;;;22.83;34.52
35848;BME280;22332;51.954;20.118;2023-05-29T13:17:44;100352.48;;;22.91;34.10
35848;BME280;22332;51.954;20.118;2023-05-29T13:20:50;100351.86;;;22.96;33.27
35848;BME280;22332;51.954;20.118;2023-05-29T13:23:56;100351.64;;;22.91;32.98
35848;BME280;22332;51.954;20.118;2023-05-29T13:27:01;100343.93;;;22.95;34.16
35848;BME280;22332;51.954;20.118;2023-05-29T13:30:09;100342.75;;;23.05;33.99
35848;BME280;22332;51.954;20.118;2023-05-29T13:33:15;100339.21;;;23.11;33.93
35848;BME280;22332;51.954;20.118;2023-05-29T13:36:20;100340.33;;;23.12;32.64
35848;BME280;22332;51.954;20.118;2023-05-29T13:39:27;100338.95;;;23.07;33.12
35848;BME280;22332;51.954;20.118;2023-05-29T13:42:33;100339.53;;;23.05;33.79
35848;BME280;22332;51.954;20.118;2023-05-29T13:45:38;100337.45;;;23.06;33.62
35848;BME280;22332;51.954;20.118;2023-05-29T13:48:45;100332.92;;;23.10;33.74
35848;BME280;22332;51.954;20.118;2023-05-29T13:51:50;100333.05;;;23.18;33.77
35848;BME280;22332;51.954;20.118;2023-05-29T13:54:56;100334.69;;;23.25;33.29
35848;BME280;22332;51.954;20.118;2023-05-29T13:58:03;100332.16;;;23.18;32.60
35848;BME280;22332;51.954;20.118;2023-05-29T14:01:09;100328.60;;;23.13;33.31
35848;BME280;22332;51.954;20.118;2023-05-29T14:04:14;100327.17;;;23.13;32.98
35848;BME280;22332;51.954;20.118;2023-05-29T14:07:20;100330.46;;;23.17;32.62
35848;BME280;22332;51.954;20.118;2023-05-29T14:10:25;100326.55;;;23.10;33.19
35848;BME280;22332;51.954;20.118;2023-05-29T14:13:31;100321.92;;;23.12;32.99
35848;BME280;22332;51.954;20.118;2023-05-29T14:16:36;100325.48;;;23.09;32.37
35848;BME280;22332;51.954;20.118;2023-05-29T14:19:42;100325.03;;;23.02;32.09
35848;BME280;22332;51.954;20.118;2023-05-29T14:22:50;100319.69;;;22.89;31.97
35848;BME280;22332;51.954;20.118;2023-05-29T14:25:55;100317.90;;;22.81;32.51
35848;BME280;22332;51.954;20.118;2023-05-29T14:29:01;100313.75;;;22.78;32.27
35848;BME280;22332;51.954;20.118;2023-05-29T14:32:07;100313.33;;;22.60;31.92
35848;BME280;22332;51.954;20.118;2023-05-29T14:35:13;100310.89;;;22.50;32.61
35848;BME280;22332;51.954;20.118;2023-05-29T14:38:19;100309.84;;;22.56;32.67
35848;BME280;22332;51.954;20.118;2023-05-29T14:41:24;100307.66;;;22.62;32.86
35848;BME280;22332;51.954;20.118;2023-05-29T14:44:30;100299.98;;;22.64;32.96
35848;BME280;22332;51.954;20.118;2023-05-29T14:47:36;100303.64;;;22.54;32.87
35848;BME280;22332;51.954;20.118;2023-05-29T14:50:41;100304.09;;;22.36;33.20
35848;BME280;22332;51.954;20.118;2023-05-29T14:53:47;100306.52;;;22.21;33.47
35848;BME280;22332;51.954;20.118;2023-05-29T14:56:52;100305.81;;;22.10;33.67
35848;BME280;22332;51.954;20.118;2023-05-29T14:59:58;100305.78;;;22.02;33.36
35848;BME280;22332;51.954;20.118;2023-05-29T15:03:03;100300.65;;;21.94;33.51
35848;BME280;22332;51.954;20.118;2023-05-29T15:06:10;100296.54;;;21.99;33.46
35848;BME280;22332;51.954;20.118;2023-05-29T15:09:17;100298.70;;;22.08;33.57
35848;BME280;22332;51.954;20.118;2023-05-29T15:12:22;100296.98;;;22.04;33.23
35848;BME280;22332;51.954;20.118;2023-05-29T15:15:28;100298.10;;;21.98;33.27
35848;BME280;22332;51.954;20.118;2023-05-29T15:18:34;100295.17;;;22.05;33.28
35848;BME280;22332;51.954;20.118;2023-05-29T15:21:40;100290.33;;;22.12;32.57
35848;BME280;22332;51.954;20.118;2023-05-29T15:24:45;100288.40;;;22.15;32.93
35848;BME280;22332;51.954;20.118;2023-05-29T15:27:51;100288.64;;;22.15;32.45
35848;BME280;22332;51.954;20.118;2023-05-29T15:30:56;100288.33;;;22.18;32.80
35848;BME280;22332;51.954;20.118;2023-05-29T15:34:02;100292.52;;;22.25;32.82
35848;BME280;22332;51.954;20.118;2023-05-29T15:37:07;100289.77;;;22.30;32.25
35848;BME280;22332;51.954;20.118;2023-05-29T15:40:13;100287.52;;;22.30;32.17
35848;BME280;22332;51.954;20.118;2023-05-29T15:43:18;100293.42;;;22.32;32.52
35848;BME280;22332;51.954;20.118;2023-05-29T15:46:25;100287.95;;;22.32;32.31
35848;BME280;22332;51.954;20.118;2023-05-29T15:49:31;100293.46;;;22.33;32.34
35848;BME280;22332;51.954;20.118;2023-05-29T15:52:37;100289.06;;;22.30;32.47
35848;BME280;22332;51.954;20.118;2023-05-29T15:55:43;100291.34;;;22.26;32.64
35848;BME280;22332;51.954;20.118;2023-05-29T15:58:48;100292.02;;;22.18;32.95
35848;BME280;22332;51.954;20.118;2023-05-29T16:01:54;100294.96;;;22.15;33.12
35848;BME280;22332;51.954;20.118;2023-05-29T16:04:59;100293.98;;;22.12;33.21
35848;BME280;22332;51.954;20.118;2023-05-29T16:08:05;100290.66;;;22.12;33.48
35848;BME280;22332;51.954;20.118;2023-05-29T16:11:11;100288.54;;;22.08;33.33
35848;BME280;22332;51.954;20.118;2023-05-29T16:14:17;100287.17;;;22.03;33.44